| time (UTC) | temp F | wind direction | speed knots | gust knots | rain 1hr in | rain 24hr in | rain mn in | humidity % | barometer mb |
| 20260906122036 | 64 | 90 | 0.0 | 0.9 | 0.00 | 0.01 | 0.00 | 94 | 1018.0 |
| 20260906121414 | 64 | 90 | 0.0 | 0.9 | 0.00 | 0.01 | 0.00 | 94 | 1018.0 |
| 20260906121003 | 65 | 90 | 0.0 | 0.9 | 0.00 | 0.01 | 0.00 | 94 | 1017.7 |
| 20260906115232 | 64 | 90 | 0.0 | 1.7 | 0.00 | 0.01 | 0.00 | 94 | 1017.7 |
| 20260906114813 | 64 | 90 | 0.0 | 0.9 | 0.00 | 0.01 | 0.00 | 94 | 1017.8 |
| 20260906114356 | 64 | 90 | 0.0 | 0.9 | 0.00 | 0.01 | 0.00 | 94 | 1017.8 |
| 20260906111013 | 64 | 320 | 0.0 | 0.0 | 0.00 | 0.01 | 0.00 | 93 | 1017.0 |
| 20260906110806 | 64 | 320 | 0.0 | 1.7 | 0.00 | 0.01 | 0.00 | 93 | 1017.1 |
| 20260906110633 | 65 | 90 | 0.0 | 0.9 | 0.00 | 0.01 | 0.00 | 94 | 1017.3 |
| 20260906110045 | 64 | 320 | 0.0 | 0.0 | 0.00 | 0.01 | 0.00 | 93 | 1017.1 |
| 20260906110029 | 65 | 90 | 0.0 | 0.9 | 0.00 | 0.01 | 0.00 | 94 | 1017.4 |
| 20260906105726 | 64 | 320 | 0.0 | 0.9 | 0.00 | 0.01 | 0.00 | 93 | 1016.9 |
| 20260906105522 | 65 | 90 | 0.0 | 0.9 | 0.00 | 0.01 | 0.00 | 94 | 1017.4 |
| 20260906105141 | 65 | 90 | 0.0 | 0.9 | 0.00 | 0.01 | 0.00 | 94 | 1017.4 |
| 20260906104709 | 65 | 320 | 0.0 | 0.9 | 0.00 | 0.01 | 0.00 | 93 | 1016.9 |
| 20260906104520 | 65 | 90 | 0.0 | 0.9 | 0.00 | 0.01 | 0.00 | 94 | 1017.4 |
| 20260906104300 | 65 | 90 | 0.0 | 2.6 | 0.00 | 0.01 | 0.00 | 94 | 1017.3 |
| 20260906104048 | 65 | 90 | 0.0 | 2.6 | 0.00 | 0.01 | 0.00 | 94 | 1017.3 |
| 20260906103842 | 65 | 320 | 0.0 | 0.9 | 0.00 | 0.01 | 0.00 | 94 | 1017.3 |
| 20260906102956 | 64 | 320 | 0.0 | 0.0 | 0.00 | 0.01 | 0.00 | 94 | 1017.4 |
| 20260906101759 | 64 | 320 | 0.0 | 0.9 | 0.00 | 0.01 | 0.00 | 93 | 1017.3 |
| 20260906095547 | 64 | 320 | 0.0 | 0.0 | 0.00 | 0.01 | 0.00 | 93 | 1017.2 |
| 20260906094709 | 64 | 320 | 0.0 | 0.9 | 0.00 | 0.01 | 0.00 | 93 | 1016.9 |
| 20260906094454 | 64 | 320 | 0.0 | 0.9 | 0.00 | 0.01 | 0.00 | 93 | 1017.1 |
| 20260906093547 | 65 | 320 | 0.0 | 1.7 | 0.00 | 0.01 | 0.00 | 92 | 1016.9 |
| 20260906093512 | 64 | 320 | 0.0 | 0.0 | 0.00 | 0.01 | 0.00 | 93 | 1017.0 |
| 20260906093434 | 65 | 320 | 0.0 | 1.7 | 0.00 | 0.01 | 0.00 | 92 | 1017.0 |
| 20260906093120 | 64 | 320 | 0.0 | 0.0 | 0.00 | 0.01 | 0.00 | 93 | 1016.9 |
| 20260906092659 | 64 | 320 | 0.0 | 0.0 | 0.00 | 0.01 | 0.00 | 93 | 1017.0 |
| 20260906092455 | 64 | 320 | 0.0 | 0.0 | 0.00 | 0.01 | 0.00 | 93 | 1017.0 |
| 20260906092032 | 64 | 320 | 0.0 | 0.0 | 0.00 | 0.01 | 0.00 | 93 | 1017.2 |
| 20260906090637 | 64 | 320 | 0.0 | 1.7 | 0.00 | 0.01 | 0.00 | 93 | 1017.1 |
| 20260906085730 | 65 | 320 | 0.0 | 0.9 | 0.00 | 0.01 | 0.00 | 92 | 1017.0 |
| 20260906085614 | 64 | 320 | 0.0 | 0.0 | 0.00 | 0.01 | 0.00 | 92 | 1017.0 |
| 20260906085509 | 64 | 320 | 0.0 | 0.9 | 0.00 | 0.01 | 0.00 | 93 | 1017.2 |
| 20260906085325 | 65 | 320 | 0.0 | 0.0 | 0.00 | 0.01 | 0.00 | 92 | 1017.1 |
| 20260906085012 | 64 | 320 | 0.0 | 0.9 | 0.00 | 0.01 | 0.00 | 93 | 1017.2 |
| 20260906084042 | 64 | 320 | 0.0 | 0.9 | 0.00 | 0.01 | 0.00 | 93 | 1017.0 |
| 20260906083505 | 64 | 320 | 0.0 | 0.9 | 0.00 | 0.01 | 0.00 | 93 | 1017.0 |
| 20260906082754 | 64 | 320 | 0.0 | 0.9 | 0.00 | 0.01 | 0.00 | 93 | 1016.8 |
| 20260906082046 | 65 | 320 | 0.0 | 0.9 | 0.00 | 0.01 | 0.00 | 93 | 1016.9 |
| 20260906081211 | 65 | 320 | 0.0 | 0.0 | 0.00 | 0.01 | 0.00 | 91 | 1016.8 |
| 20260906075834 | 65 | 320 | 0.0 | 0.9 | 0.00 | 0.01 | 0.00 | 93 | 1016.8 |
| 20260906075625 | 65 | 320 | 0.0 | 0.9 | 0.00 | 0.01 | 0.00 | 93 | 1017.0 |
| 20260906075207 | 65 | 320 | 0.0 | 0.9 | 0.00 | 0.01 | 0.00 | 93 | 1017.0 |
| 20260906073905 | 65 | 320 | 0.0 | 0.9 | 0.00 | 0.01 | 0.00 | 93 | 1016.9 |
| 20260906073237 | 65 | 320 | 0.0 | 0.9 | 0.00 | 0.01 | 0.00 | 93 | 1016.9 |
| 20260906072530 | 65 | 320 | 0.0 | 0.9 | 0.00 | 0.01 | 0.00 | 93 | 1016.8 |
| 20260906072029 | 65 | 320 | 0.0 | 0.9 | 0.00 | 0.01 | 0.00 | 93 | 1016.8 |
| 20260906071817 | 65 | 320 | 0.0 | 0.0 | 0.00 | 0.01 | 0.00 | 92 | 1016.9 |
| 20260906071356 | 65 | 320 | 0.0 | 0.9 | 0.00 | 0.01 | 0.00 | 92 | 1016.9 |
| 20260906070039 | 65 | 320 | 0.9 | 0.9 | 0.00 | 0.01 | 0.00 | 92 | 1016.8 |
| 20260906065630 | 65 | 320 | 0.0 | 0.9 | 0.00 | 0.01 | 0.00 | 92 | 1016.9 |
| 20260906065208 | 65 | 320 | 0.0 | 0.9 | 0.00 | 0.01 | 0.00 | 92 | 1017.0 |
| 20260906063242 | 65 | 320 | 0.0 | 0.0 | 0.00 | 0.01 | 0.00 | 92 | 1017.1 |
| 20260906061506 | 65 | 320 | 0.0 | 0.0 | 0.00 | 0.01 | 0.00 | 92 | 1017.0 |
| 20260906060938 | 65 | 320 | 0.0 | 0.0 | 0.00 | 0.01 | 0.00 | 92 | 1016.8 |
| 20260906060603 | 65 | 320 | 0.0 | 0.0 | 0.00 | 0.01 | 0.00 | 92 | 1017.1 |
| 20260906060026 | 67 | 320 | 0.0 | 0.9 | 0.00 | 0.01 | 0.00 | 90 | 1016.1 |
| 20260906055936 | 65 | 320 | 0.0 | 0.0 | 0.00 | 0.01 | 0.00 | 91 | 1017.0 |
| 20260906055708 | 65 | 320 | 0.0 | 0.9 | 0.00 | 0.01 | 0.00 | 91 | 1017.0 |
| 20260906054835 | 65 | 320 | 0.0 | 0.9 | 0.00 | 0.01 | 0.00 | 91 | 1016.8 |
| 20260906054146 | 65 | 320 | 0.0 | 0.9 | 0.00 | 0.01 | 0.00 | 91 | 1016.8 |
| 20260906053416 | 65 | 320 | 0.0 | 0.9 | 0.00 | 0.01 | 0.00 | 91 | 1016.9 |
| 20260906052638 | 65 | 320 | 0.0 | 0.0 | 0.00 | 0.01 | 0.00 | 91 | 1016.7 |
| 20260906051746 | 65 | 320 | 0.0 | 0.0 | 0.00 | 0.01 | 0.00 | 91 | 1016.8 |
| 20260906051128 | 65 | 320 | 0.0 | 0.0 | 0.00 | 0.01 | 0.00 | 91 | 1016.8 |
| 20260906050428 | 68 | 320 | 0.0 | 1.7 | 0.00 | 0.01 | 0.00 | 89 | 1015.9 |
| 20260906050409 | 65 | 320 | 0.0 | 0.0 | 0.00 | 0.01 | 0.00 | 91 | 1016.8 |
| 20260906045931 | 65 | 320 | 0.0 | 0.0 | 0.00 | 0.01 | 0.00 | 91 | 1016.8 |
| 20260906045411 | 65 | 320 | 0.0 | 0.0 | 0.00 | 0.01 | 0.00 | 91 | 1016.7 |
| 20260906044953 | 65 | 320 | 0.0 | 0.0 | 0.00 | 0.01 | 0.00 | 91 | 1016.6 |
| 20260906044744 | 65 | 320 | 0.0 | 0.0 | 0.00 | 0.01 | 0.00 | 90 | 1016.6 |
| 20260906044521 | 65 | 320 | 0.0 | 0.0 | 0.00 | 0.01 | 0.00 | 91 | 1016.5 |
| 20260906043645 | 65 | 320 | 0.0 | 0.0 | 0.00 | 0.01 | 0.00 | 90 | 1016.3 |
| 20260906043015 | 66 | 320 | 0.0 | 0.0 | 0.00 | 0.01 | 0.00 | 90 | 1016.3 |
| 20260906042547 | 66 | 320 | 0.0 | 0.0 | 0.00 | 0.01 | 0.00 | 90 | 1016.3 |
| 20260906042123 | 66 | 320 | 0.0 | 0.0 | 0.00 | 0.01 | 0.00 | 90 | 1016.3 |
| 20260906041359 | 66 | 320 | 0.0 | 0.0 | 0.00 | 0.01 | 0.00 | 90 | 1016.3 |
| 20260906041246 | 70 | 325 | 0.9 | 1.7 | 0.00 | 0.01 | 0.00 | 89 | 1015.8 |
| 20260906035032 | 66 | 320 | 0.0 | 0.0 | 0.00 | 0.01 | 0.00 | 90 | 1016.2 |
| 20260906034823 | 66 | 320 | 0.0 | 0.9 | 0.00 | 0.01 | 0.00 | 90 | 1016.2 |
| 20260906034619 | 66 | 320 | 0.0 | 0.9 | 0.00 | 0.01 | 0.00 | 90 | 1016.1 |
| 20260906034158 | 66 | 320 | 0.0 | 0.0 | 0.00 | 0.01 | 0.00 | 90 | 1016.1 |
| 20260906033537 | 67 | 320 | 0.0 | 0.0 | 0.00 | 0.01 | 0.00 | 90 | 1016.1 |
| 20260906033335 | 67 | 320 | 0.0 | 1.7 | 0.00 | 0.01 | 0.00 | 90 | 1016.2 |
| 20260906032026 | 67 | 320 | 0.0 | 0.9 | 0.00 | 0.01 | 0.00 | 90 | 1016.2 |
| 20260906030009 | 67 | 320 | 0.0 | 0.9 | 0.00 | 0.01 | 0.00 | 89 | 1015.9 |
| 20260906025540 | 67 | 320 | 0.0 | 0.9 | 0.00 | 0.01 | 0.00 | 89 | 1016.1 |
| 20260906025028 | 67 | 320 | 0.0 | 0.9 | 0.00 | 0.01 | 0.00 | 89 | 1016.0 |
| 20260906024443 | 68 | 320 | 0.0 | 0.9 | 0.00 | 0.01 | 0.00 | 90 | 1016.0 |
| 20260906020315 | 69 | 325 | 0.0 | 1.7 | 0.00 | 0.01 | 0.00 | 89 | 1015.5 |
| 20260906015826 | 69 | 325 | 0.0 | 0.0 | 0.00 | 0.01 | 0.00 | 88 | 1015.5 |
| 20260906015609 | 69 | 325 | 0.0 | 0.0 | 0.00 | 0.01 | 0.00 | 88 | 1015.6 |
| 20260906015400 | 69 | 325 | 0.0 | 0.0 | 0.00 | 0.01 | 0.00 | 88 | 1015.6 |
| 20260906015157 | 70 | 325 | 0.0 | 0.0 | 0.00 | 0.01 | 0.00 | 88 | 1015.7 |
| 20260906014532 | 70 | 325 | 0.0 | 0.0 | 0.00 | 0.01 | 0.00 | 88 | 1015.8 |
| 20260906014119 | 70 | 325 | 0.0 | 0.0 | 0.00 | 0.01 | 0.00 | 88 | 1015.8 |
| 20260906013915 | 70 | 325 | 0.0 | 0.9 | 0.00 | 0.01 | 0.00 | 88 | 1015.8 |
| 20260906013502 | 70 | 325 | 0.0 | 0.9 | 0.00 | 0.01 | 0.00 | 88 | 1015.8 |
| 20260906012624 | 70 | 325 | 0.0 | 1.7 | 0.00 | 0.01 | 0.00 | 88 | 1015.7 |
| 20260906010423 | 71 | 326 | 0.9 | 2.6 | 0.00 | 0.01 | 0.00 | 88 | 1015.7 |
| 20260906002116 | 71 | 231 | 0.9 | 3.5 | 0.00 | 0.01 | 0.00 | 88 | 1015.7 |
| 20260906001445 | 71 | 200 | 0.9 | 3.5 | 0.00 | 0.01 | 0.00 | 87 | 1015.5 |
| 20260906000426 | 71 | 227 | 0.9 | 2.6 | 0.00 | 0.01 | 0.00 | 87 | 1015.6 |
| 20260906000003 | 71 | 227 | 0.9 | 2.6 | 0.00 | 0.01 | 0.00 | 87 | 1015.5 |
| 20260905234750 | 72 | 232 | 0.9 | 3.5 | 0.00 | 0.01 | 0.00 | 87 | 1015.6 |
| 20260905234425 | 80 | 207 | 1.7 | 5.2 | 0.00 | 0.01 | 0.00 | 77 | 1014.6 |
| 20260905234254 | 72 | 269 | 0.9 | 2.6 | 0.00 | 0.01 | 0.00 | 86 | 1015.6 |
| 20260905234035 | 72 | 225 | 0.9 | 2.6 | 0.00 | 0.01 | 0.00 | 86 | 1015.7 |
| 20260905233555 | 72 | 232 | 0.9 | 3.5 | 0.00 | 0.01 | 0.00 | 86 | 1015.8 |
| 20260905232806 | 72 | 216 | 0.9 | 4.3 | 0.00 | 0.01 | 0.00 | 85 | 1015.8 |
| 20260905232337 | 72 | 247 | 1.7 | 4.3 | 0.00 | 0.01 | 0.00 | 85 | 1015.7 |
| 20260905231854 | 73 | 165 | 0.9 | 3.5 | 0.00 | 0.01 | 0.00 | 85 | 1015.8 |
| 20260905230942 | 73 | 211 | 0.9 | 3.5 | 0.00 | 0.01 | 0.00 | 84 | 1015.7 |
| 20260905230243 | 73 | 145 | 1.7 | 3.5 | 0.00 | 0.01 | 0.00 | 83 | 1015.6 |
| 20260905225753 | 74 | 167 | 1.7 | 6.1 | 0.00 | 0.01 | 0.00 | 84 | 1015.6 |
| 20260905225319 | 74 | 229 | 0.9 | 6.1 | 0.00 | 0.01 | 0.00 | 83 | 1015.5 |
| 20260905224744 | 74 | 132 | 0.9 | 2.6 | 0.00 | 0.01 | 0.00 | 83 | 1015.3 |
| 20260905224105 | 75 | 238 | 0.9 | 3.5 | 0.00 | 0.01 | 0.00 | 82 | 1015.4 |
| 20260905223844 | 75 | 231 | 0.9 | 2.6 | 0.00 | 0.01 | 0.00 | 82 | 1015.4 |
| 20260905222314 | 77 | 169 | 0.9 | 3.5 | 0.00 | 0.01 | 0.00 | 79 | 1015.4 |
| 20260905221645 | 77 | 189 | 0.9 | 4.3 | 0.00 | 0.01 | 0.00 | 79 | 1015.3 |
| 20260905220758 | 78 | 156 | 1.7 | 4.3 | 0.00 | 0.01 | 0.00 | 79 | 1015.2 |
| 20260905215144 | 84 | 65 | 0.9 | 2.6 | 0.00 | 0.01 | 0.00 | 73 | 1014.6 |
| 20260905214826 | 79 | 189 | 0.9 | 3.5 | 0.00 | 0.01 | 0.00 | 78 | 1014.8 |
| 20260905214400 | 80 | 74 | 0.9 | 2.6 | 0.00 | 0.01 | 0.00 | 77 | 1014.9 |
| 20260905213644 | 80 | 263 | 0.9 | 3.5 | 0.00 | 0.01 | 0.00 | 77 | 1014.8 |
| 20260905213132 | 80 | 238 | 0.9 | 3.5 | 0.00 | 0.01 | 0.00 | 77 | 1014.7 |
| 20260905212820 | 80 | 43 | 1.7 | 3.5 | 0.00 | 0.01 | 0.00 | 77 | 1014.7 |
| 20260905212133 | 80 | 189 | 0.9 | 3.5 | 0.00 | 0.01 | 0.00 | 78 | 1014.7 |
| 20260905211637 | 80 | 181 | 0.9 | 4.3 | 0.00 | 0.01 | 0.00 | 78 | 1014.5 |
| 20260905211255 | 82 | 253 | 0.9 | 2.6 | 0.00 | 0.01 | 0.00 | 79 | 1014.8 |
| 20260905205918 | 81 | 188 | 1.7 | 4.3 | 0.00 | 0.01 | 0.00 | 76 | 1014.5 |
| 20260905205235 | 81 | 173 | 0.9 | 3.5 | 0.00 | 0.01 | 0.00 | 76 | 1014.5 |
| 20260905204736 | 81 | 218 | 1.7 | 8.7 | 0.00 | 0.01 | 0.00 | 77 | 1014.6 |
| 20260905204256 | 82 | 38 | 1.7 | 8.7 | 0.00 | 0.01 | 0.00 | 77 | 1014.5 |
| 20260905203830 | 82 | 38 | 1.7 | 3.5 | 0.00 | 0.01 | 0.00 | 79 | 1014.6 |
| 20260905203354 | 81 | 150 | 1.7 | 4.3 | 0.00 | 0.01 | 0.00 | 78 | 1014.6 |
| 20260905203137 | 81 | 175 | 1.7 | 4.3 | 0.00 | 0.01 | 0.00 | 78 | 1014.5 |
| 20260905202717 | 81 | 177 | 1.7 | 4.3 | 0.00 | 0.01 | 0.00 | 78 | 1014.4 |
| 20260905202510 | 82 | 134 | 0.9 | 3.5 | 0.00 | 0.01 | 0.00 | 77 | 1014.5 |
| 20260905201414 | 82 | 125 | 0.9 | 3.5 | 0.00 | 0.01 | 0.00 | 75 | 1014.5 |
| 20260905200942 | 83 | 291 | 0.9 | 4.3 | 0.00 | 0.01 | 0.00 | 75 | 1014.6 |
| 20260905200509 | 83 | 175 | 0.9 | 4.3 | 0.00 | 0.01 | 0.00 | 75 | 1014.6 |
| 20260905195831 | 83 | 144 | 0.9 | 2.6 | 0.00 | 0.01 | 0.00 | 76 | 1014.5 |
| 20260905195411 | 83 | 144 | 0.9 | 2.6 | 0.00 | 0.01 | 0.00 | 75 | 1014.5 |
| 20260905194108 | 83 | 65 | 0.9 | 2.6 | 0.00 | 0.01 | 0.00 | 74 | 1014.6 |
| 20260905193216 | 83 | 62 | 0.9 | 3.5 | 0.00 | 0.01 | 0.00 | 77 | 1014.6 |
| 20260905192542 | 83 | 297 | 0.9 | 3.5 | 0.00 | 0.01 | 0.00 | 77 | 1014.6 |
| 20260905191906 | 83 | 138 | 0.9 | 3.5 | 0.00 | 0.01 | 0.00 | 75 | 1014.6 |
| 20260905191432 | 83 | 138 | 0.9 | 3.5 | 0.00 | 0.01 | 0.00 | 75 | 1014.6 |
| 20260905190619 | 83 | 345 | 0.9 | 4.3 | 0.00 | 0.01 | 0.00 | 77 | 1014.7 |
| 20260905190245 | 83 | 308 | 0.9 | 4.3 | 0.00 | 0.01 | 0.00 | 76 | 1014.6 |
| 20260905190010 | 82 | 253 | 0.9 | 2.6 | 0.00 | 0.01 | 0.00 | 78 | 1014.7 |
| 20260905185528 | 82 | 228 | 0.9 | 4.3 | 0.00 | 0.01 | 0.00 | 78 | 1014.7 |
| 20260905183611 | 81 | 240 | 0.9 | 2.6 | 0.00 | 0.01 | 0.00 | 80 | 1014.7 |
| 20260905183146 | 81 | 164 | 0.9 | 2.6 | 0.00 | 0.01 | 0.00 | 81 | 1014.7 |
| 20260905182731 | 80 | 290 | 0.9 | 1.7 | 0.00 | 0.01 | 0.00 | 83 | 1014.9 |
| 20260905180316 | 78 | 51 | 0.9 | 1.7 | 0.00 | 0.01 | 0.00 | 83 | 1014.9 |
| 20260905180029 | 73 | 96 | 0.0 | 1.7 | 0.00 | 0.06 | 0.00 | 94 | 1014.8 |
| 20260905175750 | 78 | 306 | 0.9 | 1.7 | 0.00 | 0.01 | 0.00 | 83 | 1014.8 |
| 20260905175222 | 78 | 291 | 0.9 | 2.6 | 0.00 | 0.01 | 0.00 | 83 | 1014.9 |
| 20260905174645 | 78 | 311 | 0.9 | 2.6 | 0.00 | 0.01 | 0.00 | 82 | 1014.9 |
| 20260905174151 | 78 | 185 | 0.9 | 2.6 | 0.00 | 0.01 | 0.00 | 83 | 1015.0 |
| 20260905173713 | 78 | 107 | 0.9 | 2.6 | 0.00 | 0.01 | 0.00 | 84 | 1015.0 |
| 20260905173248 | 78 | 248 | 0.9 | 2.6 | 0.00 | 0.01 | 0.00 | 84 | 1014.9 |
| 20260905172532 | 72 | 197 | 0.9 | 4.3 | 0.00 | 0.07 | 0.00 | 94 | 1014.4 |
| 20260905172426 | 72 | 144 | 0.9 | 2.6 | 0.00 | 0.07 | 0.00 | 95 | 1014.2 |
| 20260905172247 | 77 | 229 | 0.9 | 3.5 | 0.01 | 0.01 | 0.00 | 84 | 1015.1 |
| 20260905171729 | 77 | 321 | 0.9 | 2.6 | 0.01 | 0.01 | 0.00 | 86 | 1015.0 |
| 20260905171515 | 77 | 94 | 0.9 | 3.5 | 0.01 | 0.01 | 0.00 | 86 | 1014.9 |
| 20260905165444 | 76 | 318 | 0.9 | 3.5 | 0.01 | 0.01 | 0.00 | 88 | 1015.2 |
| 20260905165023 | 76 | 158 | 0.0 | 3.5 | 0.01 | 0.01 | 0.00 | 89 | 1015.3 |
| 20260905163913 | 75 | 258 | 0.9 | 1.7 | 0.01 | 0.01 | 0.00 | 90 | 1015.1 |
| 20260905163451 | 75 | 229 | 0.9 | 1.7 | 0.01 | 0.01 | 0.00 | 90 | 1015.1 |
| 20260905162820 | 75 | 229 | 0.9 | 1.7 | 0.01 | 0.01 | 0.00 | 91 | 1015.2 |
| 20260905162616 | 74 | 229 | 0.0 | 1.7 | 0.00 | 0.00 | 0.00 | 91 | 1015.1 |
| 20260905162415 | 74 | 229 | 0.0 | 1.7 | 0.00 | 0.00 | 0.00 | 91 | 1015.2 |
| 20260905161113 | 74 | 225 | 0.0 | 1.7 | 0.00 | 0.06 | 0.00 | 91 | 1015.2 |
| 20260905160652 | 74 | 225 | 0.0 | 1.7 | 0.00 | 0.06 | 0.00 | 92 | 1015.2 |
| 20260905160433 | 74 | 225 | 0.9 | 2.6 | 0.00 | 0.06 | 0.00 | 92 | 1015.1 |
| 20260905160234 | 74 | 212 | 0.9 | 2.6 | 0.00 | 0.06 | 0.00 | 92 | 1015.1 |
| 20260905155540 | 74 | 200 | 0.9 | 1.7 | 0.00 | 0.06 | 0.00 | 93 | 1015.1 |
| 20260905155333 | 74 | 199 | 0.9 | 2.6 | 0.00 | 0.06 | 0.00 | 93 | 1014.9 |
| 20260905155123 | 73 | 200 | 0.9 | 2.6 | 0.00 | 0.06 | 0.00 | 93 | 1015.0 |
| 20260905153404 | 73 | 174 | 0.9 | 3.5 | 0.00 | 0.06 | 0.00 | 93 | 1015.0 |
| 20260905153152 | 74 | 187 | 0.9 | 3.5 | 0.00 | 0.06 | 0.00 | 93 | 1015.0 |
| 20260905152729 | 74 | 96 | 0.0 | 1.7 | 0.00 | 0.06 | 0.00 | 94 | 1014.9 |
| 20260905151652 | 73 | 96 | 0.9 | 1.7 | 0.00 | 0.06 | 0.00 | 94 | 1014.6 |
| 20260905151233 | 73 | 347 | 0.9 | 2.6 | 0.00 | 0.06 | 0.00 | 94 | 1014.7 |
| 20260905144020 | 72 | 200 | 0.9 | 3.5 | 0.00 | 0.07 | 0.00 | 95 | 1014.1 |
| 20260905143346 | 72 | 202 | 0.9 | 3.5 | 0.00 | 0.07 | 0.00 | 94 | 1014.1 |
| 20260905142718 | 72 | 186 | 0.9 | 2.6 | 0.00 | 0.07 | 0.00 | 95 | 1014.0 |
| 20260905141203 | 72 | 192 | 0.9 | 2.6 | 0.00 | 0.07 | 0.00 | 95 | 1014.2 |
| 20260905140744 | 72 | 206 | 0.0 | 1.7 | 0.00 | 0.07 | 0.00 | 95 | 1013.9 |
| 20260905140537 | 72 | 180 | 0.0 | 2.6 | 0.00 | 0.07 | 0.00 | 95 | 1014.0 |
| 20260905133721 | 71 | 332 | 0.0 | 1.7 | 0.00 | 0.07 | 0.00 | 95 | 1013.9 |
| 20260905131506 | 71 | 342 | 0.0 | 0.9 | 0.00 | 0.07 | 0.00 | 95 | 1014.5 |
| 20260905131248 | 71 | 342 | 0.0 | 1.7 | 0.00 | 0.07 | 0.00 | 95 | 1014.6 |
| 20260905131035 | 71 | 342 | 0.0 | 1.7 | 0.00 | 0.07 | 0.00 | 95 | 1014.2 |
| 20260905130359 | 71 | 343 | 0.0 | 1.7 | 0.00 | 0.07 | 0.00 | 95 | 1014.1 |
| 20260905130133 | 71 | 344 | 0.0 | 1.7 | 0.00 | 0.07 | 0.00 | 95 | 1013.9 |
| 20260905124814 | 71 | 345 | 0.0 | 1.7 | 0.00 | 0.07 | 0.00 | 94 | 1013.9 |
| 20260905124551 | 71 | 338 | 0.0 | 1.7 | 0.00 | 0.07 | 0.00 | 95 | 1013.7 |
| 20260905124130 | 71 | 320 | 0.9 | 2.6 | 0.00 | 0.07 | 0.00 | 94 | 1013.7 |
| 20260905123037 | 71 | 34 | 0.9 | 1.7 | 0.00 | 0.07 | 0.00 | 94 | 1013.5 |
| 20260905122619 | 71 | 47 | 0.0 | 1.7 | 0.00 | 0.07 | 0.00 | 94 | 1013.4 |